DEART EDLW-EHRD
Flight info
| Callsign | DEART |
|---|---|
| Flight time | 1h 30m |
| Altitude | 6500 |
| Route | EDLW EHRD |
| Aircraft | C152/L-SDFGY/S |
Departure
| Time | 2026-04-27 20:34 |
|---|---|
| Airport | Dortmund Airport (EDLW) |
Arrival
| Time | 2026-04-27 22:05 |
|---|---|
| Airport | Rotterdam The Hague Airport (EHRD) |
| Time | Latitude | Longitude | Altitude | Speed | Heading |
|---|---|---|---|---|---|
| 2026-04-27 20:10 | 51.51194 | 7.60418 | 443 ft | 0 kts | 281° |
| 2026-04-27 20:26 | 51.51197 | 7.60405 | 443 ft | 5 kts | 286° |
| 2026-04-27 20:27 | 51.51203 | 7.60325 | 443 ft | 11 kts | 251° |
| 2026-04-27 20:27 | 51.51160 | 7.60226 | 442 ft | 10 kts | 241° |
| 2026-04-27 20:27 | 51.51195 | 7.60167 | 441 ft | 12 kts | 41° |
| 2026-04-27 20:27 | 51.51243 | 7.60295 | 440 ft | 15 kts | 61° |
| 2026-04-27 20:28 | 51.51301 | 7.60460 | 440 ft | 18 kts | 61° |
| 2026-04-27 20:28 | 51.51359 | 7.60628 | 436 ft | 18 kts | 57° |
| 2026-04-27 20:28 | 51.51428 | 7.60822 | 428 ft | 20 kts | 60° |
| 2026-04-27 20:28 | 51.51472 | 7.60946 | 428 ft | 18 kts | 58° |
| 2026-04-27 20:29 | 51.51523 | 7.61068 | 428 ft | 8 kts | 6° |
| 2026-04-27 20:29 | 51.51571 | 7.60972 | 424 ft | 14 kts | 263° |
| 2026-04-27 20:29 | 51.51551 | 7.60872 | 415 ft | 15 kts | 245° |
| 2026-04-27 20:29 | 51.51529 | 7.60755 | 412 ft | 4 kts | 233° |
| 2026-04-27 20:30 | 51.51528 | 7.60753 | 412 ft | 0 kts | 245° |
| 2026-04-27 20:33 | 51.51528 | 7.60678 | 409 ft | 14 kts | 281° |
| 2026-04-27 20:33 | 51.51596 | 7.60593 | 408 ft | 12 kts | 341° |
| 2026-04-27 20:33 | 51.51623 | 7.60625 | 409 ft | 6 kts | 61° |
| 2026-04-27 20:34 | 51.51723 | 7.60911 | 415 ft | 55 kts | 62° |
| 2026-04-27 20:34 | 51.51931 | 7.61571 | 577 ft | 69 kts | 63° |
| 2026-04-27 20:34 | 51.52141 | 7.62251 | 805 ft | 69 kts | 62° |
| 2026-04-27 20:34 | 51.52344 | 7.62937 | 1082 ft | 69 kts | 64° |
| 2026-04-27 20:35 | 51.52606 | 7.63605 | 1301 ft | 71 kts | 45° |
| 2026-04-27 20:35 | 51.53061 | 7.63839 | 1534 ft | 76 kts | 5° |
| 2026-04-27 20:35 | 51.53606 | 7.63639 | 1696 ft | 81 kts | 0° |
| 2026-04-27 20:35 | 51.54201 | 7.63626 | 1729 ft | 91 kts | 8° |
| 2026-04-27 20:36 | 51.54858 | 7.63623 | 1730 ft | 98 kts | 8° |
| 2026-04-27 20:36 | 51.55530 | 7.63529 | 1817 ft | 98 kts | 354° |
| 2026-04-27 20:36 | 51.56157 | 7.63094 | 1888 ft | 96 kts | 343° |
| 2026-04-27 20:36 | 51.56733 | 7.62601 | 1960 ft | 93 kts | 342° |
| 2026-04-27 20:37 | 51.57304 | 7.62147 | 2032 ft | 90 kts | 347° |
| 2026-04-27 20:37 | 51.57873 | 7.61728 | 2087 ft | 92 kts | 346° |
| 2026-04-27 20:37 | 51.58471 | 7.61300 | 2087 ft | 96 kts | 346° |
| 2026-04-27 20:37 | 51.59092 | 7.60862 | 2092 ft | 98 kts | 346° |
| 2026-04-27 20:38 | 51.59725 | 7.60419 | 2097 ft | 100 kts | 346° |
| 2026-04-27 20:38 | 51.60367 | 7.59972 | 2097 ft | 101 kts | 346° |
| 2026-04-27 20:38 | 51.61003 | 7.59528 | 2096 ft | 101 kts | 346° |
| 2026-04-27 20:38 | 51.61578 | 7.58866 | 2087 ft | 112 kts | 303° |
| 2026-04-27 20:39 | 51.61694 | 7.57655 | 2207 ft | 103 kts | 278° |
| 2026-04-27 20:39 | 51.61774 | 7.56556 | 2427 ft | 96 kts | 278° |
| 2026-04-27 20:39 | 51.61856 | 7.55518 | 2637 ft | 93 kts | 278° |
| 2026-04-27 20:39 | 51.61946 | 7.54496 | 2835 ft | 92 kts | 278° |
| 2026-04-27 20:40 | 51.62041 | 7.53489 | 3034 ft | 90 kts | 278° |
| 2026-04-27 20:40 | 51.62134 | 7.52506 | 3235 ft | 88 kts | 278° |
| 2026-04-27 20:40 | 51.62232 | 7.51551 | 3435 ft | 85 kts | 278° |
| 2026-04-27 20:40 | 51.62335 | 7.50629 | 3620 ft | 84 kts | 278° |
| 2026-04-27 20:41 | 51.62434 | 7.49707 | 3785 ft | 83 kts | 278° |
| 2026-04-27 20:41 | 51.62532 | 7.48797 | 3963 ft | 83 kts | 278° |
| 2026-04-27 20:41 | 51.62631 | 7.47885 | 4141 ft | 82 kts | 278° |
| 2026-04-27 20:41 | 51.62727 | 7.46986 | 4318 ft | 80 kts | 278° |
| 2026-04-27 20:42 | 51.62821 | 7.46117 | 4497 ft | 80 kts | 278° |
| 2026-04-27 20:42 | 51.62916 | 7.45232 | 4676 ft | 80 kts | 278° |
| 2026-04-27 20:42 | 51.63010 | 7.44360 | 4858 ft | 79 kts | 277° |
| 2026-04-27 20:42 | 51.63109 | 7.43492 | 5036 ft | 78 kts | 278° |
| 2026-04-27 20:43 | 51.63202 | 7.42636 | 5195 ft | 79 kts | 278° |
| 2026-04-27 20:43 | 51.63301 | 7.41749 | 5326 ft | 82 kts | 278° |
| 2026-04-27 20:43 | 51.63397 | 7.40835 | 5459 ft | 84 kts | 278° |
| 2026-04-27 20:43 | 51.63521 | 7.39908 | 5594 ft | 85 kts | 282° |
| 2026-04-27 20:44 | 51.63655 | 7.38970 | 5726 ft | 86 kts | 282° |
| 2026-04-27 20:44 | 51.63788 | 7.38025 | 5856 ft | 87 kts | 282° |
| 2026-04-27 20:44 | 51.63922 | 7.37074 | 5986 ft | 88 kts | 282° |
| 2026-04-27 20:44 | 51.64056 | 7.36115 | 6115 ft | 88 kts | 282° |
| 2026-04-27 20:45 | 51.64190 | 7.35145 | 6207 ft | 93 kts | 282° |
| 2026-04-27 20:45 | 51.64334 | 7.34089 | 6217 ft | 97 kts | 282° |
| 2026-04-27 20:45 | 51.64474 | 7.33050 | 6219 ft | 94 kts | 282° |
| 2026-04-27 20:45 | 51.64610 | 7.32034 | 6218 ft | 92 kts | 282° |
| 2026-04-27 20:46 | 51.64747 | 7.31024 | 6213 ft | 92 kts | 282° |
| 2026-04-27 20:46 | 51.64881 | 7.30027 | 6215 ft | 91 kts | 282° |
| 2026-04-27 20:46 | 51.65016 | 7.29022 | 6214 ft | 91 kts | 282° |
| 2026-04-27 20:46 | 51.65150 | 7.28026 | 6212 ft | 91 kts | 282° |
| 2026-04-27 20:47 | 51.65283 | 7.27029 | 6212 ft | 91 kts | 282° |
| 2026-04-27 20:47 | 51.65417 | 7.26032 | 6210 ft | 92 kts | 282° |
| 2026-04-27 20:47 | 51.65548 | 7.25026 | 6209 ft | 92 kts | 282° |
| 2026-04-27 20:47 | 51.65679 | 7.24027 | 6203 ft | 93 kts | 282° |
| 2026-04-27 20:48 | 51.65813 | 7.23009 | 6208 ft | 92 kts | 282° |
| 2026-04-27 20:48 | 51.65945 | 7.22004 | 6211 ft | 92 kts | 282° |
| 2026-04-27 20:48 | 51.66077 | 7.21000 | 6210 ft | 91 kts | 282° |
| 2026-04-27 20:48 | 51.66209 | 7.19997 | 6209 ft | 92 kts | 282° |
| 2026-04-27 20:49 | 51.66340 | 7.18992 | 6211 ft | 92 kts | 282° |
| 2026-04-27 20:49 | 51.66472 | 7.17988 | 6206 ft | 91 kts | 282° |
| 2026-04-27 20:49 | 51.66603 | 7.16988 | 6207 ft | 91 kts | 282° |
| 2026-04-27 20:49 | 51.66734 | 7.15989 | 6215 ft | 91 kts | 282° |
| 2026-04-27 20:50 | 51.66866 | 7.14985 | 6216 ft | 91 kts | 282° |
| 2026-04-27 20:50 | 51.66997 | 7.13982 | 6214 ft | 92 kts | 282° |
| 2026-04-27 20:50 | 51.67128 | 7.12971 | 6214 ft | 92 kts | 282° |
| 2026-04-27 20:50 | 51.67259 | 7.11963 | 6214 ft | 92 kts | 282° |
| 2026-04-27 20:51 | 51.67391 | 7.10948 | 6215 ft | 92 kts | 282° |
| 2026-04-27 20:51 | 51.67523 | 7.09940 | 6211 ft | 92 kts | 282° |
| 2026-04-27 20:51 | 51.67654 | 7.08935 | 6214 ft | 92 kts | 282° |
| 2026-04-27 20:51 | 51.67786 | 7.07927 | 6215 ft | 92 kts | 282° |
| 2026-04-27 20:52 | 51.67916 | 7.06926 | 6209 ft | 92 kts | 282° |
| 2026-04-27 20:52 | 51.68048 | 7.05916 | 6212 ft | 92 kts | 282° |
| 2026-04-27 20:52 | 51.68179 | 7.04904 | 6211 ft | 92 kts | 282° |
| 2026-04-27 20:52 | 51.68310 | 7.03891 | 6211 ft | 92 kts | 282° |
| 2026-04-27 20:53 | 51.68444 | 7.02862 | 6205 ft | 93 kts | 282° |
| 2026-04-27 20:53 | 51.68574 | 7.01863 | 6204 ft | 92 kts | 282° |
| 2026-04-27 20:53 | 51.68706 | 7.00850 | 6208 ft | 92 kts | 282° |
| 2026-04-27 20:53 | 51.68837 | 6.99840 | 6210 ft | 92 kts | 282° |
| 2026-04-27 20:54 | 51.69099 | 6.97830 | 6209 ft | 92 kts | 282° |
| 2026-04-27 20:54 | 51.69230 | 6.96825 | 6209 ft | 91 kts | 282° |
| 2026-04-27 20:54 | 51.69360 | 6.95826 | 6209 ft | 91 kts | 282° |
| 2026-04-27 20:55 | 51.69491 | 6.94818 | 6211 ft | 91 kts | 282° |
| 2026-04-27 20:55 | 51.69620 | 6.93811 | 6211 ft | 93 kts | 282° |
| 2026-04-27 20:55 | 51.69752 | 6.92791 | 6213 ft | 93 kts | 282° |
| 2026-04-27 20:55 | 51.69883 | 6.91770 | 6203 ft | 93 kts | 282° |
| 2026-04-27 20:56 | 51.70014 | 6.90751 | 6211 ft | 93 kts | 282° |
| 2026-04-27 20:56 | 51.70146 | 6.89739 | 6218 ft | 92 kts | 282° |
| 2026-04-27 20:56 | 51.70277 | 6.88729 | 6220 ft | 92 kts | 282° |
| 2026-04-27 20:56 | 51.70407 | 6.87725 | 6220 ft | 92 kts | 282° |
| 2026-04-27 20:57 | 51.70538 | 6.86716 | 6221 ft | 92 kts | 282° |
| 2026-04-27 20:57 | 51.70669 | 6.85709 | 6221 ft | 92 kts | 282° |
| 2026-04-27 20:57 | 51.70800 | 6.84702 | 6221 ft | 92 kts | 282° |
| 2026-04-27 20:57 | 51.70930 | 6.83701 | 6221 ft | 92 kts | 282° |
| 2026-04-27 20:58 | 51.71060 | 6.82694 | 6221 ft | 92 kts | 282° |
| 2026-04-27 20:58 | 51.71191 | 6.81682 | 6219 ft | 92 kts | 282° |
| 2026-04-27 20:58 | 51.71323 | 6.80667 | 6219 ft | 92 kts | 282° |
| 2026-04-27 20:58 | 51.71453 | 6.79657 | 6215 ft | 93 kts | 282° |
| 2026-04-27 20:59 | 51.71583 | 6.78646 | 6214 ft | 92 kts | 282° |
| 2026-04-27 20:59 | 51.71707 | 6.77640 | 6217 ft | 91 kts | 282° |
| 2026-04-27 20:59 | 51.71831 | 6.76642 | 6215 ft | 91 kts | 282° |
| 2026-04-27 20:59 | 51.71953 | 6.75641 | 6215 ft | 91 kts | 282° |
| 2026-04-27 21:00 | 51.72069 | 6.74661 | 6253 ft | 87 kts | 282° |
| 2026-04-27 21:00 | 51.72179 | 6.73722 | 6298 ft | 84 kts | 282° |
| 2026-04-27 21:00 | 51.72290 | 6.72811 | 6341 ft | 82 kts | 282° |
| 2026-04-27 21:00 | 51.72396 | 6.71916 | 6387 ft | 80 kts | 282° |
| 2026-04-27 21:01 | 51.72501 | 6.71039 | 6433 ft | 79 kts | 282° |
| 2026-04-27 21:01 | 51.72608 | 6.70175 | 6480 ft | 78 kts | 282° |
| 2026-04-27 21:01 | 51.72713 | 6.69331 | 6527 ft | 77 kts | 282° |
| 2026-04-27 21:01 | 51.72819 | 6.68490 | 6575 ft | 76 kts | 282° |
| 2026-04-27 21:02 | 51.72926 | 6.67659 | 6623 ft | 75 kts | 282° |
| 2026-04-27 21:02 | 51.73031 | 6.66840 | 6667 ft | 74 kts | 282° |
| 2026-04-27 21:02 | 51.73134 | 6.66025 | 6706 ft | 76 kts | 282° |
| 2026-04-27 21:02 | 51.73246 | 6.65153 | 6718 ft | 82 kts | 282° |
| 2026-04-27 21:03 | 51.73366 | 6.64217 | 6724 ft | 88 kts | 282° |
| 2026-04-27 21:03 | 51.73493 | 6.63232 | 6722 ft | 92 kts | 282° |
| 2026-04-27 21:03 | 51.73623 | 6.62217 | 6721 ft | 93 kts | 282° |
| 2026-04-27 21:03 | 51.73753 | 6.61202 | 6721 ft | 92 kts | 282° |
| 2026-04-27 21:04 | 51.73883 | 6.60192 | 6721 ft | 91 kts | 282° |
| 2026-04-27 21:04 | 51.74011 | 6.59188 | 6718 ft | 91 kts | 282° |
| 2026-04-27 21:04 | 51.74139 | 6.58190 | 6718 ft | 91 kts | 282° |
| 2026-04-27 21:04 | 51.74268 | 6.57185 | 6703 ft | 93 kts | 282° |
| 2026-04-27 21:05 | 51.74399 | 6.56157 | 6685 ft | 94 kts | 282° |
| 2026-04-27 21:05 | 51.74532 | 6.55112 | 6664 ft | 95 kts | 282° |
| 2026-04-27 21:05 | 51.74665 | 6.54065 | 6641 ft | 96 kts | 282° |
| 2026-04-27 21:05 | 51.74798 | 6.53010 | 6614 ft | 96 kts | 282° |
| 2026-04-27 21:06 | 51.74931 | 6.51965 | 6591 ft | 96 kts | 282° |
| 2026-04-27 21:06 | 51.75064 | 6.50906 | 6567 ft | 96 kts | 282° |
| 2026-04-27 21:06 | 51.75199 | 6.49849 | 6542 ft | 96 kts | 282° |
| 2026-04-27 21:06 | 51.75332 | 6.48790 | 6517 ft | 96 kts | 282° |
| 2026-04-27 21:07 | 51.75467 | 6.47730 | 6493 ft | 96 kts | 282° |
| 2026-04-27 21:07 | 51.75599 | 6.46669 | 6466 ft | 97 kts | 282° |
| 2026-04-27 21:07 | 51.75730 | 6.45599 | 6440 ft | 97 kts | 282° |
| 2026-04-27 21:07 | 51.75861 | 6.44530 | 6414 ft | 97 kts | 282° |
| 2026-04-27 21:08 | 51.75992 | 6.43460 | 6387 ft | 97 kts | 282° |
| 2026-04-27 21:08 | 51.76122 | 6.42390 | 6362 ft | 97 kts | 282° |
| 2026-04-27 21:08 | 51.76253 | 6.41312 | 6335 ft | 97 kts | 282° |
| 2026-04-27 21:08 | 51.76382 | 6.40242 | 6312 ft | 97 kts | 282° |
| 2026-04-27 21:09 | 51.76513 | 6.39179 | 6288 ft | 97 kts | 282° |
| 2026-04-27 21:09 | 51.76641 | 6.38113 | 6261 ft | 97 kts | 282° |
| 2026-04-27 21:09 | 51.76766 | 6.37052 | 6230 ft | 97 kts | 282° |
| 2026-04-27 21:09 | 51.76895 | 6.35973 | 6214 ft | 95 kts | 282° |
| 2026-04-27 21:10 | 51.77022 | 6.34933 | 6219 ft | 94 kts | 282° |
| 2026-04-27 21:10 | 51.77145 | 6.33903 | 6217 ft | 93 kts | 281° |
| 2026-04-27 21:10 | 51.77227 | 6.32877 | 6215 ft | 93 kts | 278° |
| 2026-04-27 21:10 | 51.77305 | 6.31833 | 6213 ft | 93 kts | 278° |
| 2026-04-27 21:11 | 51.77376 | 6.30801 | 6215 ft | 92 kts | 278° |
| 2026-04-27 21:11 | 51.77439 | 6.29776 | 6214 ft | 91 kts | 278° |
| 2026-04-27 21:11 | 51.77505 | 6.28758 | 6214 ft | 91 kts | 278° |
| 2026-04-27 21:11 | 51.77578 | 6.27740 | 6213 ft | 91 kts | 278° |
| 2026-04-27 21:12 | 51.77649 | 6.26728 | 6213 ft | 91 kts | 278° |
| 2026-04-27 21:12 | 51.77714 | 6.25716 | 6213 ft | 91 kts | 278° |
| 2026-04-27 21:12 | 51.77785 | 6.24702 | 6213 ft | 91 kts | 278° |
| 2026-04-27 21:12 | 51.77855 | 6.23693 | 6213 ft | 90 kts | 278° |
| 2026-04-27 21:13 | 51.77924 | 6.22682 | 6216 ft | 90 kts | 278° |
| 2026-04-27 21:13 | 51.77994 | 6.21676 | 6216 ft | 90 kts | 278° |
| 2026-04-27 21:13 | 51.78064 | 6.20681 | 6216 ft | 90 kts | 278° |
| 2026-04-27 21:13 | 51.78137 | 6.19673 | 6216 ft | 90 kts | 278° |
| 2026-04-27 21:14 | 51.78209 | 6.18668 | 6215 ft | 90 kts | 278° |
| 2026-04-27 21:14 | 51.78274 | 6.17659 | 6215 ft | 90 kts | 278° |
| 2026-04-27 21:14 | 51.78336 | 6.16650 | 6215 ft | 90 kts | 278° |
| 2026-04-27 21:14 | 51.78401 | 6.15642 | 6215 ft | 90 kts | 278° |
| 2026-04-27 21:15 | 51.78442 | 6.14959 | 6214 ft | 90 kts | 278° |
| 2026-04-27 21:15 | 51.78504 | 6.13947 | 6215 ft | 90 kts | 278° |
| 2026-04-27 21:15 | 51.78572 | 6.12937 | 6215 ft | 91 kts | 277° |
| 2026-04-27 21:15 | 51.78639 | 6.11925 | 6215 ft | 90 kts | 278° |
| 2026-04-27 21:16 | 51.78709 | 6.10927 | 6215 ft | 91 kts | 278° |
| 2026-04-27 21:16 | 51.78771 | 6.09914 | 6214 ft | 91 kts | 277° |
| 2026-04-27 21:16 | 51.78838 | 6.08902 | 6214 ft | 90 kts | 278° |
| 2026-04-27 21:16 | 51.78907 | 6.07895 | 6214 ft | 90 kts | 278° |
| 2026-04-27 21:17 | 51.78969 | 6.06884 | 6216 ft | 91 kts | 278° |
| 2026-04-27 21:17 | 51.79044 | 6.05875 | 6216 ft | 90 kts | 280° |
| 2026-04-27 21:17 | 51.79127 | 6.04869 | 6216 ft | 90 kts | 280° |
| 2026-04-27 21:17 | 51.79208 | 6.03861 | 6215 ft | 90 kts | 280° |
| 2026-04-27 21:18 | 51.79289 | 6.02856 | 6215 ft | 90 kts | 280° |
| 2026-04-27 21:18 | 51.79370 | 6.01852 | 6216 ft | 90 kts | 280° |
| 2026-04-27 21:18 | 51.79452 | 6.00846 | 6216 ft | 90 kts | 279° |
| 2026-04-27 21:18 | 51.79539 | 5.99841 | 6216 ft | 90 kts | 280° |
| 2026-04-27 21:19 | 51.79627 | 5.98839 | 6217 ft | 90 kts | 280° |
| 2026-04-27 21:19 | 51.79713 | 5.97834 | 6217 ft | 90 kts | 279° |
| 2026-04-27 21:19 | 51.79806 | 5.96833 | 6217 ft | 90 kts | 280° |
| 2026-04-27 21:20 | 51.79983 | 5.94821 | 6217 ft | 91 kts | 280° |
| 2026-04-27 21:20 | 51.80063 | 5.93807 | 6217 ft | 91 kts | 279° |
| 2026-04-27 21:20 | 51.80147 | 5.92792 | 6218 ft | 91 kts | 280° |
| 2026-04-27 21:20 | 51.80229 | 5.91776 | 6218 ft | 91 kts | 279° |
| 2026-04-27 21:21 | 51.80314 | 5.90763 | 6221 ft | 91 kts | 279° |
| 2026-04-27 21:21 | 51.80406 | 5.89753 | 6221 ft | 91 kts | 280° |
| 2026-04-27 21:21 | 51.80497 | 5.88744 | 6221 ft | 91 kts | 279° |
| 2026-04-27 21:21 | 51.80589 | 5.87735 | 6221 ft | 91 kts | 280° |
| 2026-04-27 21:22 | 51.80678 | 5.86743 | 6217 ft | 91 kts | 280° |
| 2026-04-27 21:22 | 51.80767 | 5.85737 | 6217 ft | 90 kts | 280° |
| 2026-04-27 21:22 | 51.80849 | 5.84728 | 6217 ft | 90 kts | 279° |
| 2026-04-27 21:22 | 51.80934 | 5.83723 | 6217 ft | 90 kts | 280° |
| 2026-04-27 21:23 | 51.81005 | 5.82712 | 6216 ft | 90 kts | 279° |
| 2026-04-27 21:23 | 51.81078 | 5.81704 | 6216 ft | 90 kts | 280° |
| 2026-04-27 21:23 | 51.81149 | 5.80697 | 6216 ft | 91 kts | 280° |
| 2026-04-27 21:23 | 51.81201 | 5.79681 | 6215 ft | 91 kts | 279° |
| 2026-04-27 21:24 | 51.81257 | 5.78667 | 6216 ft | 91 kts | 281° |
| 2026-04-27 21:24 | 51.81314 | 5.77650 | 6217 ft | 91 kts | 279° |
| 2026-04-27 21:24 | 51.81374 | 5.76626 | 6218 ft | 91 kts | 279° |
| 2026-04-27 21:24 | 51.81448 | 5.75607 | 6218 ft | 91 kts | 280° |
| 2026-04-27 21:25 | 51.81518 | 5.74589 | 6222 ft | 91 kts | 279° |
| 2026-04-27 21:25 | 51.81594 | 5.73569 | 6221 ft | 91 kts | 280° |
| 2026-04-27 21:25 | 51.81655 | 5.72545 | 6222 ft | 92 kts | 280° |
| 2026-04-27 21:25 | 51.81709 | 5.71518 | 6221 ft | 92 kts | 279° |
| 2026-04-27 21:26 | 51.81769 | 5.70490 | 6222 ft | 92 kts | 280° |
| 2026-04-27 21:26 | 51.81828 | 5.69458 | 6222 ft | 92 kts | 279° |
| 2026-04-27 21:26 | 51.81900 | 5.68433 | 6223 ft | 92 kts | 280° |
| 2026-04-27 21:26 | 51.81945 | 5.67410 | 6221 ft | 92 kts | 271° |
| 2026-04-27 21:27 | 51.81918 | 5.66374 | 6220 ft | 92 kts | 273° |
| 2026-04-27 21:27 | 51.81898 | 5.65349 | 6218 ft | 92 kts | 273° |
| 2026-04-27 21:27 | 51.81876 | 5.64314 | 6220 ft | 92 kts | 272° |
| 2026-04-27 21:27 | 51.81854 | 5.63279 | 6219 ft | 92 kts | 273° |
| 2026-04-27 21:28 | 51.81831 | 5.62242 | 6219 ft | 92 kts | 272° |
| 2026-04-27 21:28 | 51.81808 | 5.61206 | 6219 ft | 92 kts | 273° |
| 2026-04-27 21:28 | 51.81782 | 5.60165 | 6219 ft | 93 kts | 273° |
| 2026-04-27 21:28 | 51.81757 | 5.59126 | 6219 ft | 93 kts | 272° |
| 2026-04-27 21:29 | 51.81738 | 5.58088 | 6223 ft | 93 kts | 272° |
| 2026-04-27 21:29 | 51.81730 | 5.57050 | 6223 ft | 92 kts | 273° |
| 2026-04-27 21:29 | 51.81724 | 5.56017 | 6224 ft | 92 kts | 273° |
| 2026-04-27 21:29 | 51.81711 | 5.54982 | 6222 ft | 92 kts | 272° |
| 2026-04-27 21:30 | 51.81704 | 5.53951 | 6222 ft | 91 kts | 272° |
| 2026-04-27 21:30 | 51.81703 | 5.52925 | 6222 ft | 91 kts | 273° |
| 2026-04-27 21:30 | 51.81692 | 5.51899 | 6221 ft | 91 kts | 273° |
| 2026-04-27 21:30 | 51.81669 | 5.50868 | 6221 ft | 92 kts | 272° |
| 2026-04-27 21:31 | 51.81655 | 5.49842 | 6221 ft | 91 kts | 273° |
| 2026-04-27 21:31 | 51.81634 | 5.48816 | 6219 ft | 91 kts | 272° |
| 2026-04-27 21:31 | 51.81608 | 5.47789 | 6220 ft | 92 kts | 272° |
| 2026-04-27 21:31 | 51.81586 | 5.46753 | 6222 ft | 92 kts | 272° |
| 2026-04-27 21:32 | 51.81579 | 5.45721 | 6224 ft | 92 kts | 273° |
| 2026-04-27 21:32 | 51.81568 | 5.44689 | 6223 ft | 92 kts | 273° |
| 2026-04-27 21:32 | 51.81547 | 5.43650 | 6224 ft | 93 kts | 272° |
| 2026-04-27 21:32 | 51.81530 | 5.42621 | 6224 ft | 92 kts | 272° |
| 2026-04-27 21:33 | 51.81523 | 5.41586 | 6224 ft | 92 kts | 272° |
| 2026-04-27 21:33 | 51.81518 | 5.40552 | 6224 ft | 92 kts | 272° |
| 2026-04-27 21:33 | 51.81516 | 5.39519 | 6224 ft | 92 kts | 272° |
| 2026-04-27 21:33 | 51.81517 | 5.38491 | 6223 ft | 91 kts | 273° |
| 2026-04-27 21:34 | 51.81515 | 5.37461 | 6223 ft | 92 kts | 272° |
| 2026-04-27 21:34 | 51.81515 | 5.36435 | 6222 ft | 91 kts | 272° |
| 2026-04-27 21:34 | 51.81514 | 5.35410 | 6221 ft | 91 kts | 273° |
| 2026-04-27 21:34 | 51.81509 | 5.34386 | 6217 ft | 91 kts | 272° |
| 2026-04-27 21:35 | 51.81500 | 5.33365 | 6220 ft | 91 kts | 272° |
| 2026-04-27 21:35 | 51.81490 | 5.32342 | 6219 ft | 91 kts | 273° |
| 2026-04-27 21:35 | 51.81473 | 5.31319 | 6219 ft | 92 kts | 273° |
| 2026-04-27 21:35 | 51.81438 | 5.30288 | 6219 ft | 92 kts | 273° |
| 2026-04-27 21:36 | 51.81405 | 5.29254 | 6218 ft | 92 kts | 272° |
| 2026-04-27 21:36 | 51.81375 | 5.28218 | 6220 ft | 92 kts | 272° |
| 2026-04-27 21:36 | 51.81360 | 5.27177 | 6221 ft | 93 kts | 272° |
| 2026-04-27 21:36 | 51.81339 | 5.26151 | 6220 ft | 93 kts | 273° |
| 2026-04-27 21:37 | 51.81300 | 5.25106 | 6216 ft | 93 kts | 272° |
| 2026-04-27 21:37 | 51.81259 | 5.24044 | 6217 ft | 93 kts | 272° |
| 2026-04-27 21:37 | 51.81228 | 5.23005 | 6218 ft | 94 kts | 271° |
| 2026-04-27 21:37 | 51.81208 | 5.21955 | 6218 ft | 94 kts | 272° |
| 2026-04-27 21:38 | 51.81174 | 5.20901 | 6218 ft | 94 kts | 272° |
| 2026-04-27 21:38 | 51.81146 | 5.19849 | 6219 ft | 93 kts | 272° |
| 2026-04-27 21:38 | 51.81136 | 5.18808 | 6218 ft | 92 kts | 273° |
| 2026-04-27 21:38 | 51.81125 | 5.17775 | 6217 ft | 92 kts | 273° |
| 2026-04-27 21:39 | 51.81102 | 5.16741 | 6221 ft | 92 kts | 273° |
| 2026-04-27 21:39 | 51.81083 | 5.15700 | 6222 ft | 92 kts | 272° |
| 2026-04-27 21:39 | 51.81072 | 5.14661 | 6222 ft | 92 kts | 272° |
| 2026-04-27 21:39 | 51.81057 | 5.13623 | 6221 ft | 92 kts | 273° |
| 2026-04-27 21:40 | 51.81019 | 5.12586 | 6217 ft | 93 kts | 272° |
| 2026-04-27 21:40 | 51.80978 | 5.11547 | 6218 ft | 93 kts | 272° |
| 2026-04-27 21:40 | 51.80939 | 5.10504 | 6219 ft | 94 kts | 273° |
| 2026-04-27 21:40 | 51.80899 | 5.09454 | 6219 ft | 94 kts | 272° |
| 2026-04-27 21:41 | 51.80860 | 5.08403 | 6219 ft | 94 kts | 272° |
| 2026-04-27 21:41 | 51.80824 | 5.07366 | 6220 ft | 94 kts | 272° |
| 2026-04-27 21:41 | 51.80792 | 5.06314 | 6219 ft | 93 kts | 272° |
| 2026-04-27 21:41 | 51.80759 | 5.05267 | 6218 ft | 93 kts | 272° |
| 2026-04-27 21:42 | 51.80729 | 5.04221 | 6218 ft | 93 kts | 272° |
| 2026-04-27 21:42 | 51.80696 | 5.03171 | 6218 ft | 94 kts | 272° |
| 2026-04-27 21:42 | 51.80662 | 5.02123 | 6218 ft | 94 kts | 272° |
| 2026-04-27 21:42 | 51.80627 | 5.01078 | 6217 ft | 93 kts | 272° |
| 2026-04-27 21:43 | 51.80592 | 5.00035 | 6217 ft | 93 kts | 272° |
| 2026-04-27 21:43 | 51.80566 | 4.98994 | 6218 ft | 93 kts | 272° |
| 2026-04-27 21:43 | 51.80550 | 4.97924 | 6168 ft | 97 kts | 273° |
| 2026-04-27 21:43 | 51.80517 | 4.96816 | 6120 ft | 100 kts | 273° |
| 2026-04-27 21:44 | 51.80475 | 4.95691 | 6073 ft | 101 kts | 272° |
| 2026-04-27 21:44 | 51.80436 | 4.94552 | 6025 ft | 102 kts | 272° |
| 2026-04-27 21:44 | 51.80396 | 4.93402 | 5975 ft | 103 kts | 272° |
| 2026-04-27 21:44 | 51.80354 | 4.92242 | 5925 ft | 103 kts | 272° |
| 2026-04-27 21:45 | 51.80312 | 4.91080 | 5874 ft | 104 kts | 272° |
| 2026-04-27 21:45 | 51.80267 | 4.89921 | 5822 ft | 104 kts | 271° |
| 2026-04-27 21:45 | 51.80230 | 4.88779 | 5773 ft | 103 kts | 272° |
| 2026-04-27 21:45 | 51.80209 | 4.87628 | 5721 ft | 102 kts | 272° |
| 2026-04-27 21:46 | 51.80193 | 4.86482 | 5671 ft | 102 kts | 272° |
| 2026-04-27 21:46 | 51.80180 | 4.85328 | 5628 ft | 103 kts | 273° |
| 2026-04-27 21:46 | 51.80161 | 4.84176 | 5570 ft | 102 kts | 273° |
| 2026-04-27 21:46 | 51.80131 | 4.83026 | 5519 ft | 103 kts | 272° |
| 2026-04-27 21:47 | 51.80082 | 4.81860 | 5467 ft | 104 kts | 274° |
| 2026-04-27 21:47 | 51.80210 | 4.80722 | 5337 ft | 104 kts | 289° |
| 2026-04-27 21:47 | 51.80358 | 4.79622 | 5165 ft | 95 kts | 289° |
| 2026-04-27 21:47 | 51.80469 | 4.78615 | 4977 ft | 89 kts | 288° |
| 2026-04-27 21:48 | 51.80571 | 4.77647 | 4780 ft | 86 kts | 288° |
| 2026-04-27 21:48 | 51.80677 | 4.76707 | 4590 ft | 84 kts | 288° |
| 2026-04-27 21:48 | 51.80797 | 4.75799 | 4407 ft | 82 kts | 288° |
| 2026-04-27 21:48 | 51.80908 | 4.74897 | 4222 ft | 82 kts | 288° |
| 2026-04-27 21:49 | 51.81013 | 4.74000 | 4039 ft | 81 kts | 289° |
| 2026-04-27 21:49 | 51.81123 | 4.73109 | 3861 ft | 81 kts | 288° |
| 2026-04-27 21:49 | 51.81236 | 4.72213 | 3686 ft | 82 kts | 288° |
| 2026-04-27 21:49 | 51.81353 | 4.71315 | 3511 ft | 82 kts | 288° |
| 2026-04-27 21:50 | 51.81472 | 4.70424 | 3326 ft | 80 kts | 289° |
| 2026-04-27 21:50 | 51.81579 | 4.69541 | 3143 ft | 82 kts | 288° |
| 2026-04-27 21:50 | 51.81683 | 4.68633 | 2975 ft | 82 kts | 289° |
| 2026-04-27 21:50 | 51.81788 | 4.67714 | 2796 ft | 83 kts | 288° |
| 2026-04-27 21:51 | 51.81912 | 4.66799 | 2605 ft | 83 kts | 289° |
| 2026-04-27 21:51 | 51.82045 | 4.65873 | 2437 ft | 86 kts | 289° |
| 2026-04-27 21:51 | 51.82177 | 4.64931 | 2266 ft | 88 kts | 289° |
| 2026-04-27 21:51 | 51.82304 | 4.63964 | 2090 ft | 88 kts | 288° |
| 2026-04-27 21:52 | 51.82431 | 4.62997 | 1909 ft | 88 kts | 289° |
| 2026-04-27 21:52 | 51.82553 | 4.62033 | 1731 ft | 89 kts | 289° |
| 2026-04-27 21:52 | 51.82683 | 4.61036 | 1553 ft | 93 kts | 288° |
| 2026-04-27 21:52 | 51.82826 | 4.59949 | 1506 ft | 100 kts | 289° |
| 2026-04-27 21:53 | 51.82971 | 4.58844 | 1501 ft | 101 kts | 289° |
| 2026-04-27 21:53 | 51.83114 | 4.57721 | 1506 ft | 103 kts | 288° |
| 2026-04-27 21:53 | 51.83261 | 4.56587 | 1504 ft | 103 kts | 288° |
| 2026-04-27 21:53 | 51.83413 | 4.55465 | 1505 ft | 102 kts | 295° |
| 2026-04-27 21:54 | 51.83842 | 4.54632 | 1491 ft | 92 kts | 340° |
| 2026-04-27 21:54 | 51.84433 | 4.54384 | 1487 ft | 84 kts | 10° |
| 2026-04-27 21:54 | 51.84983 | 4.54614 | 1485 ft | 79 kts | 27° |
| 2026-04-27 21:54 | 51.85469 | 4.55018 | 1460 ft | 79 kts | 33° |
| 2026-04-27 21:55 | 51.85950 | 4.55440 | 1428 ft | 80 kts | 28° |
| 2026-04-27 21:55 | 51.86521 | 4.55365 | 1442 ft | 89 kts | 341° |
| 2026-04-27 21:55 | 51.86935 | 4.54580 | 1465 ft | 98 kts | 298° |
| 2026-04-27 21:55 | 51.87021 | 4.53459 | 1486 ft | 102 kts | 276° |
| 2026-04-27 21:56 | 51.87188 | 4.52394 | 1448 ft | 97 kts | 322° |
| 2026-04-27 21:56 | 51.88167 | 4.52616 | 1450 ft | 75 kts | 52° |
| 2026-04-27 21:56 | 51.88470 | 4.53275 | 1481 ft | 73 kts | 56° |
| 2026-04-27 21:57 | 51.88755 | 4.53963 | 1486 ft | 73 kts | 58° |
| 2026-04-27 21:57 | 51.89011 | 4.54665 | 1493 ft | 71 kts | 60° |
| 2026-04-27 21:57 | 51.89380 | 4.55201 | 1467 ft | 77 kts | 31° |
| 2026-04-27 21:57 | 51.89929 | 4.55298 | 1480 ft | 83 kts | 359° |
| 2026-04-27 21:58 | 51.90484 | 4.54935 | 1488 ft | 87 kts | 349° |
| 2026-04-27 21:58 | 51.91040 | 4.54690 | 1521 ft | 82 kts | 1° |
| 2026-04-27 21:58 | 51.91609 | 4.54563 | 1550 ft | 82 kts | 4° |
| 2026-04-27 21:58 | 51.92172 | 4.54460 | 1578 ft | 82 kts | 3° |
| 2026-04-27 21:59 | 51.92733 | 4.54347 | 1601 ft | 83 kts | 0° |
| 2026-04-27 21:59 | 51.93306 | 4.54173 | 1613 ft | 82 kts | 359° |
| 2026-04-27 21:59 | 51.93867 | 4.53957 | 1594 ft | 84 kts | 357° |
| 2026-04-27 21:59 | 51.94434 | 4.53732 | 1561 ft | 83 kts | 353° |
| 2026-04-27 22:00 | 51.94963 | 4.53314 | 1383 ft | 93 kts | 327° |
| 2026-04-27 22:00 | 51.95270 | 4.52370 | 1243 ft | 102 kts | 284° |
| 2026-04-27 22:00 | 51.95167 | 4.51231 | 1130 ft | 104 kts | 259° |
| 2026-04-27 22:00 | 51.94922 | 4.50118 | 1039 ft | 106 kts | 252° |
| 2026-04-27 22:01 | 51.94685 | 4.48972 | 1008 ft | 106 kts | 256° |
| 2026-04-27 22:01 | 51.94539 | 4.48223 | 989 ft | 106 kts | 255° |
| 2026-04-27 22:01 | 51.94266 | 4.47118 | 955 ft | 103 kts | 249° |
| 2026-04-27 22:01 | 51.94048 | 4.45711 | 943 ft | 87 kts | 300° |
| 2026-04-27 22:02 | 51.94284 | 4.45235 | 927 ft | 81 kts | 332° |
| 2026-04-27 22:02 | 51.94730 | 4.44650 | 964 ft | 80 kts | 335° |
| 2026-04-27 22:02 | 51.95188 | 4.44129 | 1023 ft | 79 kts | 338° |
| 2026-04-27 22:02 | 51.95647 | 4.43589 | 1054 ft | 83 kts | 335° |
| 2026-04-27 22:03 | 51.96100 | 4.43047 | 1107 ft | 81 kts | 335° |
| 2026-04-27 22:03 | 51.96386 | 4.42170 | 1039 ft | 104 kts | 274° |
| 2026-04-27 22:03 | 51.96091 | 4.41156 | 1082 ft | 101 kts | 231° |
| 2026-04-27 22:03 | 51.95687 | 4.40240 | 1068 ft | 98 kts | 237° |
| 2026-04-27 22:04 | 51.95306 | 4.39328 | 1043 ft | 93 kts | 233° |
| 2026-04-27 22:04 | 51.94813 | 4.38598 | 867 ft | 98 kts | 195° |
| 2026-04-27 22:04 | 51.94192 | 4.38632 | 707 ft | 85 kts | 154° |
| 2026-04-27 22:04 | 51.93803 | 4.39158 | 625 ft | 68 kts | 87° |
| 2026-04-27 22:05 | 51.93987 | 4.39798 | 566 ft | 59 kts | 59° |
| 2026-04-27 22:05 | 51.94186 | 4.40308 | 459 ft | 48 kts | 58° |
| 2026-04-27 22:05 | 51.94354 | 4.40753 | 301 ft | 48 kts | 49° |
| 2026-04-27 22:05 | 51.94553 | 4.41271 | 249 ft | 53 kts | 56° |
| 2026-04-27 22:06 | 51.94774 | 4.41754 | 209 ft | 54 kts | 56° |
| 2026-04-27 22:06 | 51.94974 | 4.42262 | 167 ft | 56 kts | 54° |
| 2026-04-27 22:06 | 51.95173 | 4.42752 | 74 ft | 52 kts | 53° |
| 2026-04-27 22:06 | 51.95354 | 4.43196 | -3 ft | 50 kts | 53° |
| 2026-04-27 22:07 | 51.95526 | 4.43641 | 81 ft | 56 kts | 55° |
| 2026-04-27 22:07 | 51.95728 | 4.44192 | 236 ft | 59 kts | 54° |
| 2026-04-27 22:07 | 51.96028 | 4.44480 | 370 ft | 63 kts | 358° |
| 2026-04-27 22:07 | 51.96322 | 4.43893 | 496 ft | 83 kts | 274° |
| 2026-04-27 22:08 | 51.96035 | 4.43029 | 579 ft | 94 kts | 236° |
| 2026-04-27 22:08 | 51.95674 | 4.42165 | 742 ft | 91 kts | 239° |
| 2026-04-27 22:08 | 51.95306 | 4.41290 | 843 ft | 95 kts | 239° |
| 2026-04-27 22:08 | 51.94957 | 4.40370 | 962 ft | 98 kts | 242° |
| 2026-04-27 22:09 | 51.94504 | 4.39646 | 1028 ft | 92 kts | 178° |
| 2026-04-27 22:09 | 51.94133 | 4.40201 | 922 ft | 73 kts | 75° |
| 2026-04-27 22:09 | 51.94360 | 4.40806 | 731 ft | 55 kts | 55° |
| 2026-04-27 22:09 | 51.94568 | 4.41278 | 556 ft | 52 kts | 52° |
| 2026-04-27 22:10 | 51.94759 | 4.41744 | 419 ft | 49 kts | 53° |
| 2026-04-27 22:10 | 51.94958 | 4.42206 | 243 ft | 49 kts | 55° |
| 2026-04-27 22:10 | 51.95133 | 4.42654 | 102 ft | 44 kts | 54° |
| 2026-04-27 22:10 | 51.95302 | 4.43067 | 21 ft | 46 kts | 51° |
| 2026-04-27 22:11 | 51.95464 | 4.43467 | -9 ft | 29 kts | 53° |
| 2026-04-27 22:11 | 51.95558 | 4.43697 | -11 ft | 29 kts | 56° |
| 2026-04-27 22:11 | 51.95659 | 4.43947 | -11 ft | 25 kts | 58° |
| 2026-04-27 22:11 | 51.95749 | 4.44174 | -11 ft | 22 kts | 57° |
| 2026-04-27 22:12 | 51.95831 | 4.44381 | -11 ft | 21 kts | 56° |
| 2026-04-27 22:12 | 51.95907 | 4.44571 | -11 ft | 14 kts | 60° |
| 2026-04-27 22:12 | 51.95899 | 4.44688 | -11 ft | 11 kts | 141° |
| 2026-04-27 22:12 | 51.95839 | 4.44763 | -11 ft | 9 kts | 164° |
| 2026-04-27 22:13 | 51.95784 | 4.44751 | -11 ft | 9 kts | 236° |
| 2026-04-27 22:13 | 51.95740 | 4.44639 | -11 ft | 14 kts | 238° |
| 2026-04-27 22:13 | 51.95680 | 4.44492 | -11 ft | 16 kts | 237° |
| 2026-04-27 22:13 | 51.95616 | 4.44338 | -11 ft | 16 kts | 238° |
| 2026-04-27 22:14 | 51.95557 | 4.44185 | -11 ft | 16 kts | 234° |
| 2026-04-27 22:14 | 51.95497 | 4.44035 | -11 ft | 16 kts | 234° |
| 2026-04-27 22:14 | 51.95454 | 4.43916 | -11 ft | 13 kts | 237° |
| 2026-04-27 22:14 | 51.95397 | 4.43790 | -11 ft | 15 kts | 238° |
| 2026-04-27 22:15 | 51.95336 | 4.43635 | -11 ft | 18 kts | 237° |
| 2026-04-27 22:15 | 51.95255 | 4.43507 | -11 ft | 16 kts | 164° |
| 2026-04-27 22:15 | 51.95154 | 4.43607 | -12 ft | 18 kts | 148° |
| 2026-04-27 22:15 | 51.95047 | 4.43723 | -12 ft | 18 kts | 156° |
| 2026-04-27 22:16 | 51.94983 | 4.43784 | -12 ft | 8 kts | 153° |
| 2026-04-27 22:16 | 51.94977 | 4.43796 | -12 ft | 8 kts | 321° |
| 2026-04-27 22:16 | 51.95026 | 4.43806 | -12 ft | 11 kts | 57° |
| 2026-04-27 22:16 | 51.95073 | 4.43931 | -12 ft | 12 kts | 83° |
| 2026-04-27 22:17 | 51.95006 | 4.43999 | -12 ft | 13 kts | 149° |
| 2026-04-27 22:17 | 51.94980 | 4.44100 | -12 ft | 11 kts | 53° |
| 2026-04-27 22:17 | 51.94988 | 4.44133 | -12 ft | 0 kts | 152° |